Time;durP1;ratioP1;P1;durP2;ratioP2;P2;SDS_P1;SDS_P2;PMS_P1;PMS_P2;Temp;Humidity;BMP_temperature;BMP_pressure;BME280_temperature;BME280_humidity;BME280_pressure;Samples;Min_cycle;Max_cycle;Signal;HPM_P1;HPM_P2
2022/05/06 00:01:37;;;;;;;12.70;5.30;;;;;;;;;;5021340;28;20130;-77
2022/05/06 00:04:05;;;;;;;12.88;5.50;;;;;;;;;;5023188;28;20075;-77
2022/05/06 00:06:33;;;;;;;14.18;5.32;;;;;;;;;;5025163;28;20153;-77
2022/05/06 00:09:00;;;;;;;11.48;4.93;;;;;;;;;;5013819;28;20053;-77
2022/05/06 00:11:27;;;;;;;11.18;5.30;;;;;;;;;;5001643;28;20046;-77
2022/05/06 00:13:55;;;;;;;11.60;5.60;;;;;;;;;;5037934;28;20064;-77
2022/05/06 00:16:23;;;;;;;9.90;4.88;;;;;;;;;;5023305;28;20133;-77
2022/05/06 00:18:50;;;;;;;8.93;5.45;;;;;;;;;;5018063;28;20128;-77
2022/05/06 00:21:18;;;;;;;15.85;5.93;;;;;;;;;;5025911;28;20144;-77
2022/05/06 00:23:45;;;;;;;8.45;4.70;;;;;;;;;;5035089;28;20135;-77
2022/05/06 00:26:12;;;;;;;9.57;5.30;;;;;;;;;;5023657;28;20132;-77
2022/05/06 00:28:40;;;;;;;12.02;5.95;;;;;;;;;;5025394;28;20332;-78
2022/05/06 00:31:07;;;;;;;8.77;5.35;;;;;;;;;;5005888;28;20073;-78
2022/05/06 00:33:34;;;;;;;11.45;5.15;;;;;;;;;;5012267;28;20084;-78
2022/05/06 00:36:03;;;;;;;13.75;5.88;;;;;;;;;;4997664;28;20144;-77
2022/05/06 00:38:30;;;;;;;8.65;5.28;;;;;;;;;;5020738;28;20525;-77
2022/05/06 00:40:58;;;;;;;9.45;5.05;;;;;;;;;;5021115;28;20498;-77
2022/05/06 00:43:25;;;;;;;14.18;5.40;;;;;;;;;;5010577;28;20080;-77
2022/05/06 00:45:53;;;;;;;16.70;5.80;;;;;;;;;;5034625;28;20121;-77
2022/05/06 00:48:25;;;;;;;12.32;5.60;;;;;;;;;;5017235;28;20107;-77
2022/05/06 00:50:53;;;;;;;9.00;5.47;;;;;;;;;;5013278;28;20080;-77
2022/05/06 00:53:20;;;;;;;9.27;5.07;;;;;;;;;;5039880;23;20072;-77
2022/05/06 00:55:49;;;;;;;7.80;4.88;;;;;;;;;;5047505;28;20128;-77
2022/05/06 00:58:16;;;;;;;17.88;5.75;;;;;;;;;;5046043;28;20126;-77
2022/05/06 01:00:44;;;;;;;12.25;5.80;;;;;;;;;;5040826;28;20128;-78
2022/05/06 01:03:12;;;;;;;14.63;6.10;;;;;;;;;;5043929;28;20615;-77
2022/05/06 01:05:39;;;;;;;11.15;4.85;;;;;;;;;;5028268;28;20521;-77
2022/05/06 01:08:08;;;;;;;15.57;5.75;;;;;;;;;;5037803;28;20127;-77
2022/05/06 01:10:37;;;;;;;10.50;5.18;;;;;;;;;;5047097;28;20148;-78
2022/05/06 01:16:09;;;;;;;11.50;5.82;;;;;;;;;;5035183;28;20136;-77
2022/05/06 01:18:36;;;;;;;12.10;5.32;;;;;;;;;;5048625;28;20049;-78
2022/05/06 01:21:05;;;;;;;11.25;5.65;;;;;;;;;;5031532;28;20128;-78
2022/05/06 01:23:34;;;;;;;14.57;6.18;;;;;;;;;;5048349;28;20096;-78
2022/05/06 01:26:01;;;;;;;12.02;5.43;;;;;;;;;;5031962;28;20133;-78
2022/05/06 01:28:30;;;;;;;10.25;5.68;;;;;;;;;;5029965;28;20215;-78
2022/05/06 01:31:03;;;;;;;9.55;5.53;;;;;;;;;;5031250;28;20141;-78
2022/05/06 01:33:31;;;;;;;14.38;6.65;;;;;;;;;;5033888;28;20084;-78
2022/05/06 01:36:01;;;;;;;10.45;5.82;;;;;;;;;;5028790;28;20087;-78
2022/05/06 01:38:43;;;;;;;13.32;6.22;;;;;;;;;;5021110;28;20077;-78
2022/05/06 01:41:15;;;;;;;12.27;5.75;;;;;;;;;;5027423;28;20049;-78
2022/05/06 01:43:44;;;;;;;12.32;5.05;;;;;;;;;;5038667;28;20501;-78
2022/05/06 01:46:13;;;;;;;12.95;4.97;;;;;;;;;;5049470;28;20676;-78
2022/05/06 01:48:43;;;;;;;8.30;5.20;;;;;;;;;;5049984;28;20063;-78
2022/05/06 01:51:11;;;;;;;13.00;5.72;;;;;;;;;;5043046;28;20351;-78
2022/05/06 01:53:38;;;;;;;10.20;5.40;;;;;;;;;;5047524;28;20111;-78
2022/05/06 01:56:07;;;;;;;15.25;5.32;;;;;;;;;;5048999;28;20080;-78
2022/05/06 01:58:34;;;;;;;13.40;5.70;;;;;;;;;;5048349;28;20087;-78
2022/05/06 02:01:02;;;;;;;10.85;6.13;;;;;;;;;;5049814;28;20123;-79
2022/05/06 02:06:15;;;;;;;11.00;6.03;;;;;;;;;;5049775;28;20076;-78
2022/05/06 02:08:43;;;;;;;17.73;7.40;;;;;;;;;;5040354;28;20088;-78
2022/05/06 02:11:11;;;;;;;18.13;6.70;;;;;;;;;;5049368;28;20047;-78
2022/05/06 02:13:39;;;;;;;10.82;5.80;;;;;;;;;;5030920;28;20060;-78
2022/05/06 02:16:06;;;;;;;24.60;6.65;;;;;;;;;;5049508;28;20606;-78
2022/05/06 02:18:34;;;;;;;12.30;6.82;;;;;;;;;;5059286;22;20071;-77
2022/05/06 02:21:01;;;;;;;14.45;7.43;;;;;;;;;;5045791;28;20123;-77
2022/05/06 02:23:29;;;;;;;13.75;7.22;;;;;;;;;;5065987;28;20060;-77
2022/05/06 02:25:56;;;;;;;12.57;5.93;;;;;;;;;;5064448;28;20835;-77
2022/05/06 02:28:24;;;;;;;13.35;7.15;;;;;;;;;;5046659;28;20112;-77
2022/05/06 02:33:38;;;;;;;8.75;5.47;;;;;;;;;;5064258;28;20056;-77
2022/05/06 02:36:05;;;;;;;20.90;5.85;;;;;;;;;;5065680;28;20048;-77
2022/05/06 02:38:32;;;;;;;12.93;7.07;;;;;;;;;;5065681;28;20048;-77
2022/05/06 02:41:00;;;;;;;13.05;6.15;;;;;;;;;;5065466;28;20128;-79
2022/05/06 02:43:27;;;;;;;12.27;6.15;;;;;;;;;;5062845;28;20107;-79
2022/05/06 02:45:54;;;;;;;16.35;6.80;;;;;;;;;;5047357;28;20074;-78
2022/05/06 02:48:21;;;;;;;15.23;6.70;;;;;;;;;;5038449;28;20052;-78
2022/05/06 02:50:48;;;;;;;16.98;7.20;;;;;;;;;;5066740;28;20139;-78
2022/05/06 02:53:15;;;;;;;13.82;6.82;;;;;;;;;;5050042;28;20165;-78
2022/05/06 02:55:43;;;;;;;17.65;7.18;;;;;;;;;;5050786;28;20052;-78
2022/05/06 02:58:10;;;;;;;29.17;7.03;;;;;;;;;;5067069;28;20076;-78
2022/05/06 03:00:37;;;;;;;12.70;6.60;;;;;;;;;;5050585;28;20072;-78
2022/05/06 03:03:05;;;;;;;22.70;6.35;;;;;;;;;;5067319;28;20059;-77
2022/05/06 03:05:32;;;;;;;14.00;6.65;;;;;;;;;;5052489;28;20532;-78
2022/05/06 03:07:59;;;;;;;13.43;7.38;;;;;;;;;;5072315;28;20232;-77
2022/05/06 03:10:27;;;;;;;16.35;6.88;;;;;;;;;;5062379;28;20094;-77
2022/05/06 03:16:15;;;;;;;30.80;7.40;;;;;;;;;;5033711;28;20470;-78
2022/05/06 03:18:43;;;;;;;14.40;6.93;;;;;;;;;;5029819;28;20046;-78
2022/05/06 03:21:10;;;;;;;15.98;7.45;;;;;;;;;;5060211;22;20058;-78
2022/05/06 03:23:37;;;;;;;27.77;8.73;;;;;;;;;;5071455;28;20084;-78
2022/05/06 03:26:04;;;;;;;20.30;8.55;;;;;;;;;;5054666;28;20084;-78
2022/05/06 03:28:32;;;;;;;18.23;7.45;;;;;;;;;;5053299;28;20144;-78
2022/05/06 03:30:59;;;;;;;33.78;6.30;;;;;;;;;;5040731;28;20117;-78
2022/05/06 03:33:28;;;;;;;26.83;8.80;;;;;;;;;;5057722;28;20049;-78
2022/05/06 03:35:56;;;;;;;13.27;7.32;;;;;;;;;;5053014;28;20088;-78
2022/05/06 03:38:23;;;;;;;16.65;8.13;;;;;;;;;;5035726;28;20147;-78
2022/05/06 03:40:50;;;;;;;21.75;7.72;;;;;;;;;;5036447;28;20565;-78
2022/05/06 03:43:17;;;;;;;18.42;7.38;;;;;;;;;;5037053;28;20124;-78
2022/05/06 03:45:45;;;;;;;21.65;8.30;;;;;;;;;;5052520;28;20040;-79
2022/05/06 03:48:12;;;;;;;20.23;7.18;;;;;;;;;;5073517;28;20083;-77
2022/05/06 03:53:26;;;;;;;16.23;7.38;;;;;;;;;;5058594;28;20148;-78
2022/05/06 03:55:53;;;;;;;12.10;5.95;;;;;;;;;;5059249;28;20449;-77
2022/05/06 03:58:20;;;;;;;21.70;6.55;;;;;;;;;;5056266;28;20087;-79
2022/05/06 04:00:47;;;;;;;16.58;6.75;;;;;;;;;;5051527;28;20549;-78
2022/05/06 04:03:14;;;;;;;12.43;7.10;;;;;;;;;;5065914;28;20960;-78
2022/05/06 04:05:42;;;;;;;25.65;7.95;;;;;;;;;;5070005;28;20334;-78
2022/05/06 04:08:09;;;;;;;25.15;10.27;;;;;;;;;;5035091;28;20571;-77
2022/05/06 04:10:36;;;;;;;36.85;9.60;;;;;;;;;;5036885;28;20079;-77
2022/05/06 04:13:03;;;;;;;32.60;9.75;;;;;;;;;;5060079;28;20077;-77
2022/05/06 04:15:34;;;;;;;20.45;8.98;;;;;;;;;;5054930;28;20095;-78
2022/05/06 04:18:01;;;;;;;16.63;8.07;;;;;;;;;;5069066;28;20053;-78
2022/05/06 04:23:30;;;;;;;20.10;9.20;;;;;;;;;;5050931;28;20049;-77
2022/05/06 04:25:59;;;;;;;40.75;10.93;;;;;;;;;;5064310;28;20049;-77
2022/05/06 04:28:27;;;;;;;27.35;10.65;;;;;;;;;;5050163;28;20082;-77
2022/05/06 04:30:54;;;;;;;20.30;9.82;;;;;;;;;;5052666;28;20136;-77
2022/05/06 04:33:24;;;;;;;24.58;10.88;;;;;;;;;;5061671;28;20083;-76
2022/05/06 04:35:53;;;;;;;28.38;10.65;;;;;;;;;;5066870;28;20041;-77
2022/05/06 04:38:20;;;;;;;25.50;12.02;;;;;;;;;;5049772;28;20044;-79
2022/05/06 04:40:48;;;;;;;31.33;13.18;;;;;;;;;;5045925;28;20134;-76
2022/05/06 04:43:17;;;;;;;33.47;14.25;;;;;;;;;;5044388;28;20128;-79
2022/05/06 04:45:45;;;;;;;32.65;13.50;;;;;;;;;;5033179;28;20156;-80
2022/05/06 04:48:12;;;;;;;23.95;12.13;;;;;;;;;;5034875;28;20136;-79
2022/05/06 04:50:40;;;;;;;32.30;12.93;;;;;;;;;;5054228;28;20159;-81
2022/05/06 04:53:08;;;;;;;35.42;14.88;;;;;;;;;;5071288;28;20390;-80
2022/05/06 04:55:35;;;;;;;45.08;14.57;;;;;;;;;;5068142;28;20131;-79
2022/05/06 04:58:03;;;;;;;42.10;15.43;;;;;;;;;;5032527;28;20136;-83
2022/05/06 05:00:31;;;;;;;52.20;15.55;;;;;;;;;;5034528;28;20085;-78
2022/05/06 05:02:58;;;;;;;38.13;14.50;;;;;;;;;;5068426;28;20389;-75
2022/05/06 05:05:26;;;;;;;36.47;15.90;;;;;;;;;;5048811;28;20950;-76
2022/05/06 05:07:53;;;;;;;36.42;15.55;;;;;;;;;;5039289;28;20057;-76
2022/05/06 05:10:24;;;;;;;37.95;15.70;;;;;;;;;;5066079;28;20489;-77
2022/05/06 05:12:51;;;;;;;38.35;15.82;;;;;;;;;;5061212;28;20114;-80
2022/05/06 05:15:18;;;;;;;52.25;18.75;;;;;;;;;;5067379;28;20135;-76
2022/05/06 05:18:23;;;;;;;42.55;17.60;;;;;;;;;;5049903;28;20151;-76
2022/05/06 05:20:51;;;;;;;37.80;16.00;;;;;;;;;;5052797;28;20562;-77
2022/05/06 05:23:18;;;;;;;43.00;16.92;;;;;;;;;;5030480;28;20148;-78
2022/05/06 05:25:45;;;;;;;39.50;15.70;;;;;;;;;;5032120;28;20537;-77
2022/05/06 05:28:12;;;;;;;38.50;17.83;;;;;;;;;;5065079;28;20045;-78
2022/05/06 05:30:40;;;;;;;48.30;20.10;;;;;;;;;;5064947;28;20080;-80
2022/05/06 05:33:07;;;;;;;49.47;18.73;;;;;;;;;;5068474;28;20135;-81
2022/05/06 05:35:35;;;;;;;43.33;17.67;;;;;;;;;;5068546;28;20064;-78
2022/05/06 05:38:03;;;;;;;37.15;16.65;;;;;;;;;;5050771;28;20040;-82
2022/05/06 05:40:30;;;;;;;42.70;20.25;;;;;;;;;;5041421;28;20053;-81
2022/05/06 05:42:58;;;;;;;45.97;20.05;;;;;;;;;;5036849;23;20080;-82
2022/05/06 05:48:20;;;;;;;41.20;19.45;;;;;;;;;;5032382;28;20158;-81
2022/05/06 05:50:48;;;;;;;46.30;19.00;;;;;;;;;;5014111;28;20073;-81
2022/05/06 05:53:15;;;;;;;54.15;21.00;;;;;;;;;;5050356;28;20057;-82
2022/05/06 05:55:42;;;;;;;42.35;19.75;;;;;;;;;;5063618;22;20075;-82
2022/05/06 05:58:09;;;;;;;46.25;19.25;;;;;;;;;;5026712;28;20144;-82
2022/05/06 06:00:37;;;;;;;41.10;18.58;;;;;;;;;;5030077;28;20132;-81
2022/05/06 06:03:04;;;;;;;47.75;18.90;;;;;;;;;;5046109;28;20125;-81
2022/05/06 06:05:31;;;;;;;47.58;19.75;;;;;;;;;;5057897;28;20390;-80
2022/05/06 06:07:59;;;;;;;39.30;17.92;;;;;;;;;;5041384;28;20647;-81
2022/05/06 06:13:33;;;;;;;40.83;17.63;;;;;;;;;;5045056;28;20565;-80
2022/05/06 06:16:00;;;;;;;37.20;16.25;;;;;;;;;;5045935;28;20482;-81
2022/05/06 06:18:28;;;;;;;41.55;17.77;;;;;;;;;;5046233;28;20060;-81
2022/05/06 06:20:55;;;;;;;37.58;16.95;;;;;;;;;;5044655;28;20131;-80
2022/05/06 06:23:23;;;;;;;38.80;16.55;;;;;;;;;;5044599;28;20076;-80
2022/05/06 06:25:56;;;;;;;34.75;15.63;;;;;;;;;;5055172;23;20488;-80
2022/05/06 06:28:23;;;;;;;30.05;14.52;;;;;;;;;;5067380;28;20177;-80
2022/05/06 06:30:50;;;;;;;35.05;15.55;;;;;;;;;;5067117;28;20129;-80
2022/05/06 06:33:18;;;;;;;33.75;16.95;;;;;;;;;;5067203;28;20590;-80
2022/05/06 06:35:45;;;;;;;35.75;15.27;;;;;;;;;;5065161;28;20142;-80
2022/05/06 06:38:12;;;;;;;27.10;14.23;;;;;;;;;;5065563;28;20079;-80
2022/05/06 06:40:39;;;;;;;41.00;15.07;;;;;;;;;;5066348;28;20052;-80
2022/05/06 06:43:07;;;;;;;26.13;13.65;;;;;;;;;;5065677;28;20072;-80
2022/05/06 06:45:35;;;;;;;28.88;14.30;;;;;;;;;;5066025;28;20717;-80
2022/05/06 06:48:03;;;;;;;30.00;14.60;;;;;;;;;;5065445;28;20048;-80
2022/05/06 06:50:30;;;;;;;29.13;13.43;;;;;;;;;;5066705;28;20147;-80
2022/05/06 06:52:57;;;;;;;27.48;13.35;;;;;;;;;;5058238;28;20076;-87
2022/05/06 06:55:29;;;;;;;27.10;13.35;;;;;;;;;;5050864;28;20209;-87
2022/05/06 06:57:56;;;;;;;26.63;13.30;;;;;;;;;;5050062;28;20561;-86
2022/05/06 07:00:23;;;;;;;26.20;12.55;;;;;;;;;;5053755;28;20049;-87
2022/05/06 07:02:50;;;;;;;25.48;12.23;;;;;;;;;;5068927;28;20738;-86
2022/05/06 07:05:17;;;;;;;25.23;13.10;;;;;;;;;;5070220;28;20501;-87
2022/05/06 07:13:42;;;;;;;20.15;11.75;;;;;;;;;;5068492;28;20080;-88
2022/05/06 07:16:10;;;;;;;21.30;11.30;;;;;;;;;;5069868;28;20114;-87
2022/05/06 07:18:38;;;;;;;22.50;11.68;;;;;;;;;;5068582;28;20055;-88
2022/05/06 07:21:05;;;;;;;18.90;10.77;;;;;;;;;;5070044;28;20118;-88
2022/05/06 07:23:32;;;;;;;17.95;9.80;;;;;;;;;;5068922;28;20126;-88
2022/05/06 07:25:59;;;;;;;19.00;9.90;;;;;;;;;;5068275;28;20076;-88
2022/05/06 07:28:26;;;;;;;38.08;11.57;;;;;;;;;;5068733;28;20146;-89
2022/05/06 07:30:53;;;;;;;17.95;10.13;;;;;;;;;;5069459;28;20084;-83
2022/05/06 07:33:21;;;;;;;16.75;9.38;;;;;;;;;;5070229;28;20106;-85
2022/05/06 07:35:48;;;;;;;19.15;8.82;;;;;;;;;;5058007;28;20460;-84
2022/05/06 07:38:15;;;;;;;19.33;10.48;;;;;;;;;;5056945;28;20115;-85
2022/05/06 07:40:43;;;;;;;30.45;10.07;;;;;;;;;;5068920;28;20083;-85
2022/05/06 07:43:13;;;;;;;19.50;11.02;;;;;;;;;;5068749;28;20080;-84
2022/05/06 07:45:41;;;;;;;15.05;9.98;;;;;;;;;;5059846;28;20055;-85
2022/05/06 07:48:10;;;;;;;25.17;9.88;;;;;;;;;;5070717;28;20127;-86
2022/05/06 07:50:37;;;;;;;20.42;10.77;;;;;;;;;;5053205;28;20462;-85
2022/05/06 07:53:05;;;;;;;17.70;10.27;;;;;;;;;;5074375;28;20104;-85
2022/05/06 07:55:35;;;;;;;26.85;10.07;;;;;;;;;;5074639;28;20128;-85
2022/05/06 07:58:04;;;;;;;19.05;10.50;;;;;;;;;;5056478;28;20086;-85
2022/05/06 08:00:32;;;;;;;20.15;9.60;;;;;;;;;;5075487;28;20658;-84
2022/05/06 08:05:47;;;;;;;17.98;7.47;;;;;;;;;;5073610;28;20550;-85
2022/05/06 08:08:15;;;;;;;12.05;7.25;;;;;;;;;;5072538;28;20098;-86
2022/05/06 08:10:44;;;;;;;13.00;7.72;;;;;;;;;;5074222;28;20131;-85
2022/05/06 08:13:11;;;;;;;17.52;7.63;;;;;;;;;;5072376;28;20449;-85
2022/05/06 08:15:38;;;;;;;13.95;7.85;;;;;;;;;;5073258;28;20080;-83
2022/05/06 08:18:06;;;;;;;31.15;8.07;;;;;;;;;;5073997;28;20048;-82
2022/05/06 08:20:33;;;;;;;13.15;7.80;;;;;;;;;;5071413;28;20052;-82
2022/05/06 08:23:00;;;;;;;11.13;7.20;;;;;;;;;;5073277;28;20053;-82
2022/05/06 08:25:27;;;;;;;13.02;7.75;;;;;;;;;;5065702;28;20473;-82
2022/05/06 08:28:03;;;;;;;11.07;6.90;;;;;;;;;;5074852;28;20056;-82
2022/05/06 08:30:30;;;;;;;10.95;6.18;;;;;;;;;;5073770;28;20154;-83
2022/05/06 08:32:58;;;;;;;11.20;6.43;;;;;;;;;;5055968;28;20087;-83
2022/05/06 08:35:25;;;;;;;8.60;5.93;;;;;;;;;;5073469;28;20083;-83
2022/05/06 08:37:52;;;;;;;14.30;6.05;;;;;;;;;;5072957;28;20098;-83
2022/05/06 08:40:21;;;;;;;10.88;6.03;;;;;;;;;;5073001;28;20102;-83
2022/05/06 08:42:48;;;;;;;12.73;5.78;;;;;;;;;;5073336;28;20135;-82
2022/05/06 08:50:51;;;;;;;7.22;3.38;;;;;;;;;;5072677;28;20084;-82
2022/05/06 08:53:18;;;;;;;14.63;3.60;;;;;;;;;;5061342;28;20505;-81
2022/05/06 08:55:45;;;;;;;5.63;2.95;;;;;;;;;;5072545;28;20106;-81
2022/05/06 08:58:12;;;;;;;4.50;2.85;;;;;;;;;;5072794;28;20147;-82
2022/05/06 09:00:40;;;;;;;4.95;2.50;;;;;;;;;;5072681;28;20084;-81
2022/05/06 09:03:07;;;;;;;8.55;3.63;;;;;;;;;;5071399;28;20044;-81
2022/05/06 09:05:47;;;;;;;5.60;3.03;;;;;;;;;;5069245;28;20056;-82
2022/05/06 09:08:14;;;;;;;7.35;2.50;;;;;;;;;;5053063;28;20122;-84
2022/05/06 09:10:41;;;;;;;3.65;1.92;;;;;;;;;;5035265;28;20095;-84
2022/05/06 09:13:09;;;;;;;25.77;3.00;;;;;;;;;;5052686;28;20104;-83
2022/05/06 09:18:24;;;;;;;6.25;2.10;;;;;;;;;;5073050;28;20048;-84
2022/05/06 09:21:09;;;;;;;4.32;1.92;;;;;;;;;;5072377;28;20052;-83
2022/05/06 09:23:37;;;;;;;7.57;1.80;;;;;;;;;;5069390;28;20044;-78
2022/05/06 09:26:04;;;;;;;3.10;1.48;;;;;;;;;;5072524;28;20048;-84
2022/05/06 09:28:32;;;;;;;4.90;2.28;;;;;;;;;;5072282;28;20076;-85
2022/05/06 09:30:59;;;;;;;4.25;2.50;;;;;;;;;;5064197;28;20059;-85
2022/05/06 09:33:28;;;;;;;3.63;1.70;;;;;;;;;;5055633;28;20052;-85
2022/05/06 09:35:56;;;;;;;3.78;1.77;;;;;;;;;;5072970;28;20068;-84
2022/05/06 09:38:25;;;;;;;7.28;1.80;;;;;;;;;;5073609;28;20045;-85
2022/05/06 09:40:52;;;;;;;4.20;1.20;;;;;;;;;;5072623;28;20068;-84
2022/05/06 09:43:20;;;;;;;2.40;1.08;;;;;;;;;;5055135;28;20079;-84
2022/05/06 09:45:47;;;;;;;2.35;1.20;;;;;;;;;;5055152;28;20060;-84
2022/05/06 09:48:15;;;;;;;1.33;0.90;;;;;;;;;;5056445;28;20044;-85
2022/05/06 09:50:46;;;;;;;2.75;1.27;;;;;;;;;;5073007;28;20052;-84
2022/05/06 09:53:18;;;;;;;4.18;1.52;;;;;;;;;;5071314;28;20044;-84
2022/05/06 09:55:47;;;;;;;10.40;1.90;;;;;;;;;;5071586;28;20060;-85
2022/05/06 09:58:14;;;;;;;2.58;1.40;;;;;;;;;;5076349;22;20083;-78
2022/05/06 10:00:42;;;;;;;3.30;1.33;;;;;;;;;;5031568;28;20623;-77
2022/05/06 10:03:09;;;;;;;2.65;1.55;;;;;;;;;;5064657;28;20084;-78
2022/05/06 10:05:37;;;;;;;5.95;1.48;;;;;;;;;;5066643;28;20048;-78
2022/05/06 10:08:18;;;;;;;9.23;2.10;;;;;;;;;;5066829;28;20137;-78
2022/05/06 10:10:55;;;;;;;9.93;1.83;;;;;;;;;;5063208;28;20048;-78
2022/05/06 10:16:48;;;;;;;10.35;2.35;;;;;;;;;;4989194;28;20455;-76
2022/05/06 10:19:25;;;;;;;4.47;1.90;;;;;;;;;;4984457;28;20495;-77
2022/05/06 10:21:52;;;;;;;7.32;1.90;;;;;;;;;;4989282;28;20049;-77
2022/05/06 10:24:20;;;;;;;2.83;1.48;;;;;;;;;;5006635;28;20096;-77
2022/05/06 10:26:51;;;;;;;86.18;6.38;;;;;;;;;;4981224;28;20113;-77
2022/05/06 10:35:08;;;;;;;3.03;1.45;;;;;;;;;;5006679;28;20058;-77
2022/05/06 10:37:36;;;;;;;4.45;1.40;;;;;;;;;;5005348;28;20054;-78
2022/05/06 10:40:23;;;;;;;4.57;1.60;;;;;;;;;;4988373;28;20101;-77
2022/05/06 10:42:50;;;;;;;3.33;1.33;;;;;;;;;;4984641;28;20157;-78
2022/05/06 10:45:27;;;;;;;4.45;1.40;;;;;;;;;;4987158;28;20129;-78
2022/05/06 10:47:54;;;;;;;4.38;1.63;;;;;;;;;;5005797;28;20068;-78
2022/05/06 10:50:25;;;;;;;2.33;1.50;;;;;;;;;;4988052;28;20464;-78
2022/05/06 10:52:57;;;;;;;1.95;1.30;;;;;;;;;;5006659;28;20133;-77
2022/05/06 10:55:25;;;;;;;18.35;2.13;;;;;;;;;;5004751;28;20213;-78
2022/05/06 10:57:56;;;;;;;2.28;1.35;;;;;;;;;;4990209;28;20042;-82
2022/05/06 11:00:23;;;;;;;7.78;1.95;;;;;;;;;;4991577;28;20092;-82
2022/05/06 11:02:51;;;;;;;8.65;1.75;;;;;;;;;;4992616;28;20625;-82
2022/05/06 11:05:20;;;;;;;2.63;1.50;;;;;;;;;;5007840;28;20058;-84
2022/05/06 11:07:48;;;;;;;4.53;1.88;;;;;;;;;;4993281;28;20545;-84
2022/05/06 11:10:20;;;;;;;3.70;1.30;;;;;;;;;;5008217;28;20042;-84
2022/05/06 11:12:52;;;;;;;2.72;1.50;;;;;;;;;;5010945;28;20424;-84
2022/05/06 11:15:23;;;;;;;3.58;1.42;;;;;;;;;;4980518;28;20493;-84
2022/05/06 11:17:51;;;;;;;5.38;1.52;;;;;;;;;;4972520;28;20059;-84
2022/05/06 11:20:23;;;;;;;1.85;1.65;;;;;;;;;;4991002;28;20156;-84
2022/05/06 11:22:53;;;;;;;2.65;1.75;;;;;;;;;;4991358;28;20522;-85
2022/05/06 11:25:24;;;;;;;18.35;2.15;;;;;;;;;;4989539;28;20046;-83
2022/05/06 11:27:52;;;;;;;2.20;1.75;;;;;;;;;;4986831;28;20103;-84
2022/05/06 11:30:20;;;;;;;6.68;1.73;;;;;;;;;;4974959;28;20078;-83
2022/05/06 11:33:01;;;;;;;3.28;1.75;;;;;;;;;;4982620;28;20057;-84
2022/05/06 11:35:29;;;;;;;3.65;1.50;;;;;;;;;;4993437;28;20065;-84
2022/05/06 11:37:57;;;;;;;2.35;1.17;;;;;;;;;;4994691;28;20634;-83
2022/05/06 11:42:53;;;;;;;6.60;1.80;;;;;;;;;;4975108;28;20054;-83
2022/05/06 11:48:10;;;;;;;3.53;1.50;;;;;;;;;;4992404;28;20054;-85
2022/05/06 11:50:41;;;;;;;6.20;1.63;;;;;;;;;;4994341;28;20606;-83
2022/05/06 11:53:09;;;;;;;2.40;1.60;;;;;;;;;;4972255;28;20491;-85
2022/05/06 11:55:37;;;;;;;20.58;2.63;;;;;;;;;;4971309;28;20083;-84
2022/05/06 11:58:05;;;;;;;1.90;1.27;;;;;;;;;;4991241;28;20558;-86
2022/05/06 12:00:33;;;;;;;7.75;1.80;;;;;;;;;;4991365;28;20078;-86
2022/05/06 12:03:04;;;;;;;9.38;1.70;;;;;;;;;;4993490;28;20050;-86
2022/05/06 12:05:32;;;;;;;4.38;1.58;;;;;;;;;;4989804;28;20058;-85
2022/05/06 12:07:59;;;;;;;18.90;2.10;;;;;;;;;;4974748;28;20688;-87
2022/05/06 12:10:27;;;;;;;8.20;1.77;;;;;;;;;;4974713;28;20078;-85
2022/05/06 12:12:55;;;;;;;5.60;1.75;;;;;;;;;;4971655;28;20085;-87
2022/05/06 12:15:29;;;;;;;7.53;1.75;;;;;;;;;;4984378;28;20133;-88
2022/05/06 12:18:02;;;;;;;3.75;2.10;;;;;;;;;;4993924;28;20086;-87
2022/05/06 12:20:31;;;;;;;4.65;1.65;;;;;;;;;;4993543;28;20058;-84
2022/05/06 12:22:58;;;;;;;3.80;1.58;;;;;;;;;;4992549;28;20561;-87
2022/05/06 12:25:26;;;;;;;2.25;1.48;;;;;;;;;;4993146;28;20058;-84
2022/05/06 12:28:05;;;;;;;7.75;1.92;;;;;;;;;;4973154;28;20109;-83
2022/05/06 12:30:33;;;;;;;6.35;2.03;;;;;;;;;;4976435;28;20082;-84
2022/05/06 12:33:03;;;;;;;3.38;1.77;;;;;;;;;;4993352;28;20090;-85
2022/05/06 12:35:30;;;;;;;4.00;1.60;;;;;;;;;;4991532;28;20046;-85
2022/05/06 12:37:58;;;;;;;3.83;2.00;;;;;;;;;;4991168;28;20069;-83
2022/05/06 12:40:32;;;;;;;7.63;1.73;;;;;;;;;;4993939;28;20086;-83
2022/05/06 12:43:09;;;;;;;4.25;1.98;;;;;;;;;;4988819;28;20484;-82
2022/05/06 12:45:37;;;;;;;8.85;2.10;;;;;;;;;;4990672;28;20081;-82
2022/05/06 12:50:51;;;;;;;4.38;2.22;;;;;;;;;;4991387;28;20069;-81
2022/05/06 12:53:19;;;;;;;8.35;1.95;;;;;;;;;;4978444;28;20105;-82
2022/05/06 12:55:46;;;;;;;4.10;1.90;;;;;;;;;;4975394;28;20047;-82
2022/05/06 12:58:14;;;;;;;5.28;2.20;;;;;;;;;;4991823;28;20105;-83
2022/05/06 13:00:41;;;;;;;6.00;1.95;;;;;;;;;;4986840;28;20085;-83
2022/05/06 13:03:08;;;;;;;6.97;2.10;;;;;;;;;;4987122;28;20054;-83
2022/05/06 13:05:36;;;;;;;2.05;1.48;;;;;;;;;;4993082;28;20054;-83
2022/05/06 13:08:06;;;;;;;2.03;1.70;;;;;;;;;;4992656;28;20085;-83
2022/05/06 13:10:34;;;;;;;19.08;3.45;;;;;;;;;;4988841;28;20061;-83
2022/05/06 13:13:02;;;;;;;3.67;1.60;;;;;;;;;;4972989;28;20090;-83
2022/05/06 13:15:30;;;;;;;8.23;2.00;;;;;;;;;;4971786;28;20074;-83
2022/05/06 13:17:57;;;;;;;2.78;1.73;;;;;;;;;;4972724;28;20429;-82
2022/05/06 13:20:25;;;;;;;5.00;1.60;;;;;;;;;;4972064;28;20065;-82
2022/05/06 13:22:52;;;;;;;7.05;1.67;;;;;;;;;;4973400;28;20058;-82
2022/05/06 13:25:19;;;;;;;7.20;1.95;;;;;;;;;;4974620;28;20086;-87
2022/05/06 14:07:21;;;;;;;3.60;1.33;;;;;;;;;;5144551;27;20385;-79
2022/05/06 14:09:48;;;;;;;1.95;1.30;;;;;;;;;;5139905;27;20780;-80
2022/05/06 14:12:16;;;;;;;4.35;1.20;;;;;;;;;;5123983;27;20075;-76
2022/05/06 14:14:43;;;;;;;1.58;1.38;;;;;;;;;;5119752;28;20043;-77
2022/05/06 14:17:10;;;;;;;6.63;1.40;;;;;;;;;;5121102;27;20130;-77
2022/05/06 14:19:37;;;;;;;2.58;1.50;;;;;;;;;;5132540;27;20186;-77
2022/05/06 14:22:05;;;;;;;1.85;1.13;;;;;;;;;;5126637;27;20531;-77
2022/05/06 14:24:32;;;;;;;1.95;1.02;;;;;;;;;;5142835;27;20051;-76
2022/05/06 14:26:59;;;;;;;4.10;1.10;;;;;;;;;;5142858;27;20105;-77
2022/05/06 14:29:26;;;;;;;8.23;1.60;;;;;;;;;;5141475;27;20460;-76
2022/05/06 14:31:55;;;;;;;2.88;1.10;;;;;;;;;;5139843;27;20103;-77
2022/05/06 14:34:22;;;;;;;4.05;1.15;;;;;;;;;;5141780;27;20187;-77
2022/05/06 14:36:49;;;;;;;6.20;1.13;;;;;;;;;;5127675;27;20459;-77
2022/05/06 14:39:19;;;;;;;2.13;1.00;;;;;;;;;;5128564;27;20445;-77
2022/05/06 14:41:46;;;;;;;10.20;1.40;;;;;;;;;;5141003;27;20047;-77
2022/05/06 14:44:13;;;;;;;4.13;1.15;;;;;;;;;;5140361;27;20122;-77
2022/05/06 14:46:41;;;;;;;3.03;1.15;;;;;;;;;;5134562;27;20430;-77
2022/05/06 14:49:08;;;;;;;16.00;1.60;;;;;;;;;;5142392;27;20141;-77
2022/05/06 14:51:35;;;;;;;3.53;1.27;;;;;;;;;;5142092;27;20108;-77
2022/05/06 14:54:04;;;;;;;1.27;1.13;;;;;;;;;;5139658;27;20133;-77
2022/05/06 14:56:32;;;;;;;11.32;1.75;;;;;;;;;;5141317;27;20133;-77
2022/05/06 14:59:00;;;;;;;1.80;1.10;;;;;;;;;;5141380;27;20100;-77
2022/05/06 15:01:28;;;;;;;4.63;1.30;;;;;;;;;;5128842;27;20501;-76
2022/05/06 15:03:55;;;;;;;1.92;1.40;;;;;;;;;;5135537;27;20047;-77
2022/05/06 15:06:25;;;;;;;1.40;1.30;;;;;;;;;;5134157;27;20144;-77
2022/05/06 15:08:53;;;;;;;3.25;1.58;;;;;;;;;;5121723;27;20052;-77
2022/05/06 15:11:21;;;;;;;3.85;1.55;;;;;;;;;;5107258;28;20155;-77
2022/05/06 15:13:48;;;;;;;4.57;1.60;;;;;;;;;;5123890;27;20059;-77
2022/05/06 15:16:15;;;;;;;4.72;1.50;;;;;;;;;;5126003;27;20079;-77
2022/05/06 15:21:28;;;;;;;3.95;1.50;;;;;;;;;;5127469;27;20122;-77
2022/05/06 15:23:56;;;;;;;17.42;2.45;;;;;;;;;;5124699;27;20084;-77
2022/05/06 15:26:23;;;;;;;5.00;1.95;;;;;;;;;;5122525;27;20129;-77
2022/05/06 15:28:50;;;;;;;2.50;1.63;;;;;;;;;;5126631;27;20905;-77
2022/05/06 15:31:17;;;;;;;5.50;1.63;;;;;;;;;;5126867;27;20121;-77
2022/05/06 15:33:44;;;;;;;6.32;1.80;;;;;;;;;;5127121;27;20063;-77
2022/05/06 15:36:12;;;;;;;6.13;1.70;;;;;;;;;;5125008;27;20074;-77
2022/05/06 15:38:39;;;;;;;6.57;1.95;;;;;;;;;;5114195;27;20092;-77
2022/05/06 15:41:06;;;;;;;5.90;1.77;;;;;;;;;;5126126;27;20157;-77
2022/05/06 15:43:35;;;;;;;22.52;3.00;;;;;;;;;;5128017;27;20134;-77
2022/05/06 15:46:02;;;;;;;2.13;1.50;;;;;;;;;;5123151;27;20134;-77
2022/05/06 15:48:30;;;;;;;4.07;1.80;;;;;;;;;;5126281;27;20107;-77
2022/05/06 15:50:57;;;;;;;3.50;1.77;;;;;;;;;;5125397;27;20150;-77
2022/05/06 15:53:24;;;;;;;3.22;1.80;;;;;;;;;;5119856;27;20123;-77
2022/05/06 15:55:53;;;;;;;3.35;1.80;;;;;;;;;;5122713;27;20079;-77
2022/05/06 15:58:20;;;;;;;10.95;1.98;;;;;;;;;;5128896;27;20418;-78
2022/05/06 16:00:52;;;;;;;14.85;2.20;;;;;;;;;;5121659;27;20081;-89
2022/05/06 16:03:19;;;;;;;26.30;3.20;;;;;;;;;;5132245;27;20047;-82
2022/05/06 16:05:47;;;;;;;3.55;2.13;;;;;;;;;;5121308;27;20045;-79
2022/05/06 16:08:16;;;;;;;2.80;2.08;;;;;;;;;;5126595;27;20287;-80
2022/05/06 16:10:43;;;;;;;13.43;2.55;;;;;;;;;;5127915;27;20115;-82
2022/05/06 16:13:11;;;;;;;27.17;3.42;;;;;;;;;;5128154;27;20055;-79
2022/05/06 16:15:38;;;;;;;10.15;2.63;;;;;;;;;;5111965;27;20075;-78
2022/05/06 16:18:06;;;;;;;12.80;2.33;;;;;;;;;;5126229;27;20463;-78
2022/05/06 16:20:34;;;;;;;7.32;2.60;;;;;;;;;;5122895;27;20731;-78